sensor_id;sensor_type;location;lat;lon;timestamp;temperature;humidity
21312;DHT22;18076;52.154;10.570;2022-07-23T00:01:34;16.80;99.90
21312;DHT22;18076;52.154;10.570;2022-07-23T00:03:59;16.80;99.90
21312;DHT22;18076;52.154;10.570;2022-07-23T00:06:25;16.80;99.90
21312;DHT22;18076;52.154;10.570;2022-07-23T00:08:51;16.80;99.90
21312;DHT22;18076;52.154;10.570;2022-07-23T00:11:17;16.90;99.90
21312;DHT22;18076;52.154;10.570;2022-07-23T00:13:42;16.90;99.90
21312;DHT22;18076;52.154;10.570;2022-07-23T00:16:08;17.00;99.90
21312;DHT22;18076;52.154;10.570;2022-07-23T00:18:33;17.00;99.90
21312;DHT22;18076;52.154;10.570;2022-07-23T00:20:59;17.00;99.90
21312;DHT22;18076;52.154;10.570;2022-07-23T00:23:25;17.00;99.90
21312;DHT22;18076;52.154;10.570;2022-07-23T00:25:52;17.00;99.90
21312;DHT22;18076;52.154;10.570;2022-07-23T00:28:18;17.10;99.90
21312;DHT22;18076;52.154;10.570;2022-07-23T00:30:44;17.00;99.90
21312;DHT22;18076;52.154;10.570;2022-07-23T00:33:09;17.00;99.90
21312;DHT22;18076;52.154;10.570;2022-07-23T00:35:36;17.00;99.90
21312;DHT22;18076;52.154;10.570;2022-07-23T00:38:02;16.90;99.90
21312;DHT22;18076;52.154;10.570;2022-07-23T00:40:29;16.90;99.90
21312;DHT22;18076;52.154;10.570;2022-07-23T00:42:55;16.80;99.90
21312;DHT22;18076;52.154;10.570;2022-07-23T00:45:20;16.80;99.90
21312;DHT22;18076;52.154;10.570;2022-07-23T00:47:46;16.80;99.90
21312;DHT22;18076;52.154;10.570;2022-07-23T00:50:12;16.70;99.90
21312;DHT22;18076;52.154;10.570;2022-07-23T00:52:38;16.80;99.90
21312;DHT22;18076;52.154;10.570;2022-07-23T00:55:04;16.80;99.90
21312;DHT22;18076;52.154;10.570;2022-07-23T00:57:30;16.70;99.90
21312;DHT22;18076;52.154;10.570;2022-07-23T00:59:56;16.80;99.90
21312;DHT22;18076;52.154;10.570;2022-07-23T01:02:24;16.80;99.90
21312;DHT22;18076;52.154;10.570;2022-07-23T01:04:49;16.80;99.90
21312;DHT22;18076;52.154;10.570;2022-07-23T01:07:15;16.90;99.90
21312;DHT22;18076;52.154;10.570;2022-07-23T01:09:40;16.90;99.90
21312;DHT22;18076;52.154;10.570;2022-07-23T01:12:07;16.70;99.90
21312;DHT22;18076;52.154;10.570;2022-07-23T01:14:32;16.60;99.90
21312;DHT22;18076;52.154;10.570;2022-07-23T01:16:58;16.60;99.90
21312;DHT22;18076;52.154;10.570;2022-07-23T01:19:23;16.60;99.90
21312;DHT22;18076;52.154;10.570;2022-07-23T01:21:50;16.70;99.90
21312;DHT22;18076;52.154;10.570;2022-07-23T01:24:16;16.60;99.90
21312;DHT22;18076;52.154;10.570;2022-07-23T01:26:43;16.60;99.90
21312;DHT22;18076;52.154;10.570;2022-07-23T01:29:09;16.50;99.90
21312;DHT22;18076;52.154;10.570;2022-07-23T01:31:34;16.40;99.90
21312;DHT22;18076;52.154;10.570;2022-07-23T01:34:00;16.40;99.90
21312;DHT22;18076;52.154;10.570;2022-07-23T01:36:26;16.40;99.90
21312;DHT22;18076;52.154;10.570;2022-07-23T01:38:51;16.40;99.90
21312;DHT22;18076;52.154;10.570;2022-07-23T01:41:17;16.50;99.90
21312;DHT22;18076;52.154;10.570;2022-07-23T01:43:43;16.50;99.90
21312;DHT22;18076;52.154;10.570;2022-07-23T01:46:08;16.50;99.90
21312;DHT22;18076;52.154;10.570;2022-07-23T01:48:34;16.50;99.90
21312;DHT22;18076;52.154;10.570;2022-07-23T01:50:59;16.40;99.90
21312;DHT22;18076;52.154;10.570;2022-07-23T01:53:25;16.40;99.90
21312;DHT22;18076;52.154;10.570;2022-07-23T01:55:50;16.50;99.90
21312;DHT22;18076;52.154;10.570;2022-07-23T01:58:16;16.40;99.90
21312;DHT22;18076;52.154;10.570;2022-07-23T02:00:41;16.40;99.90
21312;DHT22;18076;52.154;10.570;2022-07-23T02:03:07;16.40;99.90
21312;DHT22;18076;52.154;10.570;2022-07-23T02:05:32;16.40;99.90
21312;DHT22;18076;52.154;10.570;2022-07-23T02:07:58;16.40;99.90
21312;DHT22;18076;52.154;10.570;2022-07-23T02:10:25;16.40;99.90
21312;DHT22;18076;52.154;10.570;2022-07-23T02:12:50;16.50;99.90
21312;DHT22;18076;52.154;10.570;2022-07-23T02:15:16;16.50;99.90
21312;DHT22;18076;52.154;10.570;2022-07-23T02:17:42;16.60;99.90
21312;DHT22;18076;52.154;10.570;2022-07-23T02:20:08;16.60;99.90
21312;DHT22;18076;52.154;10.570;2022-07-23T02:22:33;16.60;99.90
21312;DHT22;18076;52.154;10.570;2022-07-23T02:24:59;16.60;99.90
21312;DHT22;18076;52.154;10.570;2022-07-23T02:27:25;16.60;99.90
21312;DHT22;18076;52.154;10.570;2022-07-23T02:29:50;16.60;99.90
21312;DHT22;18076;52.154;10.570;2022-07-23T02:32:16;16.50;99.90
21312;DHT22;18076;52.154;10.570;2022-07-23T02:34:42;16.50;99.90
21312;DHT22;18076;52.154;10.570;2022-07-23T02:37:07;16.50;99.90
21312;DHT22;18076;52.154;10.570;2022-07-23T02:39:34;16.40;99.90
21312;DHT22;18076;52.154;10.570;2022-07-23T02:42:00;16.40;99.90
21312;DHT22;18076;52.154;10.570;2022-07-23T02:44:25;16.40;99.90
21312;DHT22;18076;52.154;10.570;2022-07-23T02:46:51;16.30;99.90
21312;DHT22;18076;52.154;10.570;2022-07-23T02:49:17;16.30;99.90
21312;DHT22;18076;52.154;10.570;2022-07-23T02:51:42;16.20;99.90
21312;DHT22;18076;52.154;10.570;2022-07-23T02:54:08;16.20;99.90
21312;DHT22;18076;52.154;10.570;2022-07-23T02:56:33;16.20;99.90
21312;DHT22;18076;52.154;10.570;2022-07-23T02:58:59;16.20;99.90
21312;DHT22;18076;52.154;10.570;2022-07-23T03:01:24;16.20;99.90
21312;DHT22;18076;52.154;10.570;2022-07-23T03:03:50;16.30;99.90
21312;DHT22;18076;52.154;10.570;2022-07-23T03:06:16;16.20;99.90
21312;DHT22;18076;52.154;10.570;2022-07-23T03:08:42;16.30;99.90
21312;DHT22;18076;52.154;10.570;2022-07-23T03:11:08;16.20;99.90
21312;DHT22;18076;52.154;10.570;2022-07-23T03:13:39;16.20;99.90
21312;DHT22;18076;52.154;10.570;2022-07-23T03:16:05;16.20;99.90
21312;DHT22;18076;52.154;10.570;2022-07-23T03:18:31;16.20;99.90
21312;DHT22;18076;52.154;10.570;2022-07-23T03:20:56;16.10;99.90
21312;DHT22;18076;52.154;10.570;2022-07-23T03:23:22;16.10;99.90
21312;DHT22;18076;52.154;10.570;2022-07-23T03:25:47;16.10;99.90
21312;DHT22;18076;52.154;10.570;2022-07-23T03:28:17;16.10;99.90
21312;DHT22;18076;52.154;10.570;2022-07-23T03:30:42;16.10;99.90
21312;DHT22;18076;52.154;10.570;2022-07-23T03:33:08;16.00;99.90
21312;DHT22;18076;52.154;10.570;2022-07-23T03:35:34;16.10;99.90
21312;DHT22;18076;52.154;10.570;2022-07-23T03:37:59;16.10;99.90
21312;DHT22;18076;52.154;10.570;2022-07-23T03:40:25;16.10;99.90
21312;DHT22;18076;52.154;10.570;2022-07-23T03:42:50;16.10;99.90
21312;DHT22;18076;52.154;10.570;2022-07-23T03:45:16;16.10;99.90
21312;DHT22;18076;52.154;10.570;2022-07-23T03:47:41;16.10;99.90
21312;DHT22;18076;52.154;10.570;2022-07-23T03:50:08;16.10;99.90
21312;DHT22;18076;52.154;10.570;2022-07-23T03:52:34;16.10;99.90
21312;DHT22;18076;52.154;10.570;2022-07-23T03:54:59;16.10;99.90
21312;DHT22;18076;52.154;10.570;2022-07-23T03:57:25;16.10;99.90
21312;DHT22;18076;52.154;10.570;2022-07-23T03:59:50;16.10;99.90
21312;DHT22;18076;52.154;10.570;2022-07-23T04:02:16;16.10;99.90
21312;DHT22;18076;52.154;10.570;2022-07-23T04:04:41;16.10;99.90
21312;DHT22;18076;52.154;10.570;2022-07-23T04:07:07;16.10;99.90
21312;DHT22;18076;52.154;10.570;2022-07-23T04:09:33;16.20;99.90
21312;DHT22;18076;52.154;10.570;2022-07-23T04:11:58;16.20;99.90
21312;DHT22;18076;52.154;10.570;2022-07-23T04:14:24;16.20;99.90
21312;DHT22;18076;52.154;10.570;2022-07-23T04:16:49;16.20;99.90
21312;DHT22;18076;52.154;10.570;2022-07-23T04:19:15;16.20;99.90
21312;DHT22;18076;52.154;10.570;2022-07-23T04:21:40;16.20;99.90
21312;DHT22;18076;52.154;10.570;2022-07-23T04:24:06;16.30;99.90
21312;DHT22;18076;52.154;10.570;2022-07-23T04:26:31;16.30;99.90
21312;DHT22;18076;52.154;10.570;2022-07-23T04:28:57;16.30;99.90
21312;DHT22;18076;52.154;10.570;2022-07-23T04:31:22;16.30;99.90
21312;DHT22;18076;52.154;10.570;2022-07-23T04:33:48;16.30;99.90
21312;DHT22;18076;52.154;10.570;2022-07-23T04:36:13;16.30;99.90
21312;DHT22;18076;52.154;10.570;2022-07-23T04:38:39;16.30;99.90
21312;DHT22;18076;52.154;10.570;2022-07-23T04:41:04;16.30;99.90
21312;DHT22;18076;52.154;10.570;2022-07-23T04:43:30;16.30;99.90
21312;DHT22;18076;52.154;10.570;2022-07-23T04:45:56;16.30;99.90
21312;DHT22;18076;52.154;10.570;2022-07-23T04:48:21;16.30;99.90
21312;DHT22;18076;52.154;10.570;2022-07-23T04:50:47;16.40;99.90
21312;DHT22;18076;52.154;10.570;2022-07-23T04:53:12;16.40;99.90
21312;DHT22;18076;52.154;10.570;2022-07-23T04:55:38;16.40;99.90
21312;DHT22;18076;52.154;10.570;2022-07-23T04:58:03;16.40;99.90
21312;DHT22;18076;52.154;10.570;2022-07-23T05:00:29;16.50;99.90
21312;DHT22;18076;52.154;10.570;2022-07-23T05:02:54;16.60;99.90
21312;DHT22;18076;52.154;10.570;2022-07-23T05:05:20;16.50;99.90
21312;DHT22;18076;52.154;10.570;2022-07-23T05:07:45;16.60;99.90
21312;DHT22;18076;52.154;10.570;2022-07-23T05:10:11;16.60;99.90
21312;DHT22;18076;52.154;10.570;2022-07-23T05:12:37;16.70;99.90
21312;DHT22;18076;52.154;10.570;2022-07-23T05:15:02;16.70;99.90
21312;DHT22;18076;52.154;10.570;2022-07-23T05:17:28;16.70;99.90
21312;DHT22;18076;52.154;10.570;2022-07-23T05:19:53;16.70;99.90
21312;DHT22;18076;52.154;10.570;2022-07-23T05:22:19;16.60;99.90
21312;DHT22;18076;52.154;10.570;2022-07-23T05:24:44;16.70;99.90
21312;DHT22;18076;52.154;10.570;2022-07-23T05:27:10;16.60;99.90
21312;DHT22;18076;52.154;10.570;2022-07-23T05:29:35;16.60;99.90
21312;DHT22;18076;52.154;10.570;2022-07-23T05:32:01;16.60;99.90
21312;DHT22;18076;52.154;10.570;2022-07-23T05:34:26;16.60;99.90
21312;DHT22;18076;52.154;10.570;2022-07-23T05:36:52;16.60;99.90
21312;DHT22;18076;52.154;10.570;2022-07-23T05:39:17;16.60;99.90
21312;DHT22;18076;52.154;10.570;2022-07-23T05:41:43;16.70;99.90
21312;DHT22;18076;52.154;10.570;2022-07-23T05:44:08;16.80;99.90
21312;DHT22;18076;52.154;10.570;2022-07-23T05:46:34;16.90;99.90
21312;DHT22;18076;52.154;10.570;2022-07-23T05:48:59;17.00;99.90
21312;DHT22;18076;52.154;10.570;2022-07-23T05:51:25;17.10;99.90
21312;DHT22;18076;52.154;10.570;2022-07-23T05:53:51;17.10;99.90
21312;DHT22;18076;52.154;10.570;2022-07-23T05:56:17;17.20;99.90
21312;DHT22;18076;52.154;10.570;2022-07-23T05:58:43;17.10;99.90
21312;DHT22;18076;52.154;10.570;2022-07-23T06:01:08;17.20;99.90
21312;DHT22;18076;52.154;10.570;2022-07-23T06:03:34;17.30;99.90
21312;DHT22;18076;52.154;10.570;2022-07-23T06:05:59;17.60;99.90
21312;DHT22;18076;52.154;10.570;2022-07-23T06:08:25;18.00;99.90
21312;DHT22;18076;52.154;10.570;2022-07-23T06:10:50;18.40;99.90
21312;DHT22;18076;52.154;10.570;2022-07-23T06:13:19;18.70;99.90
21312;DHT22;18076;52.154;10.570;2022-07-23T06:15:45;18.80;99.90
21312;DHT22;18076;52.154;10.570;2022-07-23T06:18:10;18.90;99.90
21312;DHT22;18076;52.154;10.570;2022-07-23T06:20:36;18.90;99.90
21312;DHT22;18076;52.154;10.570;2022-07-23T06:23:01;19.20;99.90
21312;DHT22;18076;52.154;10.570;2022-07-23T06:25:27;19.20;99.90
21312;DHT22;18076;52.154;10.570;2022-07-23T06:27:52;19.50;99.90
21312;DHT22;18076;52.154;10.570;2022-07-23T06:30:18;19.60;99.90
21312;DHT22;18076;52.154;10.570;2022-07-23T06:32:44;19.60;99.90
21312;DHT22;18076;52.154;10.570;2022-07-23T06:35:10;19.70;99.90
21312;DHT22;18076;52.154;10.570;2022-07-23T06:37:35;19.80;99.90
21312;DHT22;18076;52.154;10.570;2022-07-23T06:40:01;19.70;99.90
21312;DHT22;18076;52.154;10.570;2022-07-23T06:42:27;19.70;99.90
21312;DHT22;18076;52.154;10.570;2022-07-23T06:44:52;19.90;99.90
21312;DHT22;18076;52.154;10.570;2022-07-23T06:47:18;20.00;99.90
21312;DHT22;18076;52.154;10.570;2022-07-23T06:49:43;20.10;99.90
21312;DHT22;18076;52.154;10.570;2022-07-23T06:52:09;20.10;99.90
21312;DHT22;18076;52.154;10.570;2022-07-23T06:54:34;20.10;99.90
21312;DHT22;18076;52.154;10.570;2022-07-23T06:57:00;20.40;99.90
21312;DHT22;18076;52.154;10.570;2022-07-23T06:59:25;20.40;99.90
21312;DHT22;18076;52.154;10.570;2022-07-23T07:01:51;20.40;99.90
21312;DHT22;18076;52.154;10.570;2022-07-23T07:04:17;20.40;99.90
21312;DHT22;18076;52.154;10.570;2022-07-23T07:06:42;20.60;99.90
21312;DHT22;18076;52.154;10.570;2022-07-23T07:09:08;20.70;99.90
21312;DHT22;18076;52.154;10.570;2022-07-23T07:11:33;20.70;99.90
21312;DHT22;18076;52.154;10.570;2022-07-23T07:13:59;20.70;99.90
21312;DHT22;18076;52.154;10.570;2022-07-23T07:16:24;20.60;99.90
21312;DHT22;18076;52.154;10.570;2022-07-23T07:18:50;20.80;99.90
21312;DHT22;18076;52.154;10.570;2022-07-23T07:21:15;21.00;99.90
21312;DHT22;18076;52.154;10.570;2022-07-23T07:23:41;20.90;99.90
21312;DHT22;18076;52.154;10.570;2022-07-23T07:26:06;21.00;99.90
21312;DHT22;18076;52.154;10.570;2022-07-23T07:28:32;21.20;99.90
21312;DHT22;18076;52.154;10.570;2022-07-23T07:30:57;21.10;99.90
21312;DHT22;18076;52.154;10.570;2022-07-23T07:33:23;21.30;99.90
21312;DHT22;18076;52.154;10.570;2022-07-23T07:35:48;21.30;99.90
21312;DHT22;18076;52.154;10.570;2022-07-23T07:38:14;21.20;99.90
21312;DHT22;18076;52.154;10.570;2022-07-23T07:40:39;21.40;99.90
21312;DHT22;18076;52.154;10.570;2022-07-23T07:43:05;21.60;99.90
21312;DHT22;18076;52.154;10.570;2022-07-23T07:45:31;21.70;99.90
21312;DHT22;18076;52.154;10.570;2022-07-23T07:47:56;21.70;99.90
21312;DHT22;18076;52.154;10.570;2022-07-23T07:50:22;21.90;99.90
21312;DHT22;18076;52.154;10.570;2022-07-23T07:52:48;21.70;99.90
21312;DHT22;18076;52.154;10.570;2022-07-23T07:55:14;21.80;99.90
21312;DHT22;18076;52.154;10.570;2022-07-23T07:57:40;22.10;99.90
21312;DHT22;18076;52.154;10.570;2022-07-23T08:00:06;22.40;99.90
21312;DHT22;18076;52.154;10.570;2022-07-23T08:02:39;22.40;99.90
21312;DHT22;18076;52.154;10.570;2022-07-23T08:05:05;22.80;99.90
21312;DHT22;18076;52.154;10.570;2022-07-23T08:07:31;23.30;99.90
21312;DHT22;18076;52.154;10.570;2022-07-23T08:09:56;22.70;99.90
21312;DHT22;18076;52.154;10.570;2022-07-23T08:12:22;22.70;99.90
21312;DHT22;18076;52.154;10.570;2022-07-23T08:14:47;22.50;99.90
21312;DHT22;18076;52.154;10.570;2022-07-23T08:17:13;22.60;99.90
21312;DHT22;18076;52.154;10.570;2022-07-23T08:19:38;22.50;99.90
21312;DHT22;18076;52.154;10.570;2022-07-23T08:22:04;22.40;99.90
21312;DHT22;18076;52.154;10.570;2022-07-23T08:24:29;22.30;99.90
21312;DHT22;18076;52.154;10.570;2022-07-23T08:26:55;22.00;99.90
21312;DHT22;18076;52.154;10.570;2022-07-23T08:29:20;21.90;99.90
21312;DHT22;18076;52.154;10.570;2022-07-23T08:31:46;22.00;99.90
21312;DHT22;18076;52.154;10.570;2022-07-23T08:34:11;22.60;99.90
21312;DHT22;18076;52.154;10.570;2022-07-23T08:36:37;22.90;99.90
21312;DHT22;18076;52.154;10.570;2022-07-23T08:39:02;22.90;99.90
21312;DHT22;18076;52.154;10.570;2022-07-23T08:41:29;22.70;99.90
21312;DHT22;18076;52.154;10.570;2022-07-23T08:43:54;22.50;99.90
21312;DHT22;18076;52.154;10.570;2022-07-23T08:46:20;22.50;99.90
21312;DHT22;18076;52.154;10.570;2022-07-23T08:48:47;22.70;99.90
21312;DHT22;18076;52.154;10.570;2022-07-23T08:51:12;22.60;99.90
21312;DHT22;18076;52.154;10.570;2022-07-23T08:53:38;22.50;99.90
21312;DHT22;18076;52.154;10.570;2022-07-23T08:56:05;22.80;99.90
21312;DHT22;18076;52.154;10.570;2022-07-23T08:58:31;23.00;99.90
21312;DHT22;18076;52.154;10.570;2022-07-23T09:00:57;23.00;99.90
21312;DHT22;18076;52.154;10.570;2022-07-23T09:03:30;22.90;99.90
21312;DHT22;18076;52.154;10.570;2022-07-23T09:05:57;22.80;99.90
21312;DHT22;18076;52.154;10.570;2022-07-23T09:08:27;22.60;99.90
21312;DHT22;18076;52.154;10.570;2022-07-23T09:10:59;22.70;99.90
21312;DHT22;18076;52.154;10.570;2022-07-23T09:13:36;23.10;99.90
21312;DHT22;18076;52.154;10.570;2022-07-23T09:16:05;23.50;99.90
21312;DHT22;18076;52.154;10.570;2022-07-23T09:18:32;23.80;99.90
21312;DHT22;18076;52.154;10.570;2022-07-23T09:21:05;24.20;99.90
21312;DHT22;18076;52.154;10.570;2022-07-23T09:23:37;24.30;99.90
21312;DHT22;18076;52.154;10.570;2022-07-23T09:26:06;23.90;99.90
21312;DHT22;18076;52.154;10.570;2022-07-23T09:28:55;24.00;99.90
21312;DHT22;18076;52.154;10.570;2022-07-23T09:31:21;24.20;99.90
21312;DHT22;18076;52.154;10.570;2022-07-23T09:33:47;24.20;99.90
21312;DHT22;18076;52.154;10.570;2022-07-23T09:36:13;24.80;99.90
21312;DHT22;18076;52.154;10.570;2022-07-23T09:38:51;24.90;99.90
21312;DHT22;18076;52.154;10.570;2022-07-23T09:41:16;24.40;99.90
21312;DHT22;18076;52.154;10.570;2022-07-23T09:43:42;23.60;99.90
21312;DHT22;18076;52.154;10.570;2022-07-23T09:49:12;24.10;99.90
21312;DHT22;18076;52.154;10.570;2022-07-23T09:51:43;24.60;99.90
21312;DHT22;18076;52.154;10.570;2022-07-23T09:54:08;24.90;99.90
21312;DHT22;18076;52.154;10.570;2022-07-23T09:56:45;25.40;99.90
21312;DHT22;18076;52.154;10.570;2022-07-23T09:59:14;25.60;99.90
21312;DHT22;18076;52.154;10.570;2022-07-23T10:01:43;25.10;99.90
21312;DHT22;18076;52.154;10.570;2022-07-23T10:04:08;24.30;99.90
21312;DHT22;18076;52.154;10.570;2022-07-23T10:06:35;24.00;99.90
21312;DHT22;18076;52.154;10.570;2022-07-23T10:09:01;23.90;99.90
21312;DHT22;18076;52.154;10.570;2022-07-23T10:11:27;24.00;99.90
21312;DHT22;18076;52.154;10.570;2022-07-23T10:13:54;24.30;99.90
21312;DHT22;18076;52.154;10.570;2022-07-23T10:16:25;24.50;99.90
21312;DHT22;18076;52.154;10.570;2022-07-23T10:18:51;24.30;99.90
21312;DHT22;18076;52.154;10.570;2022-07-23T10:21:25;23.90;99.90
21312;DHT22;18076;52.154;10.570;2022-07-23T10:33:56;24.50;99.90
21312;DHT22;18076;52.154;10.570;2022-07-23T10:39:14;25.00;99.60
21312;DHT22;18076;52.154;10.570;2022-07-23T10:41:40;25.20;99.70
21312;DHT22;18076;52.154;10.570;2022-07-23T10:46:31;25.80;97.60
21312;DHT22;18076;52.154;10.570;2022-07-23T10:54:31;26.20;96.90
21312;DHT22;18076;52.154;10.570;2022-07-23T10:59:22;26.20;95.10
21312;DHT22;18076;52.154;10.570;2022-07-23T11:01:48;26.00;95.30
21312;DHT22;18076;52.154;10.570;2022-07-23T11:04:13;25.70;95.30
21312;DHT22;18076;52.154;10.570;2022-07-23T11:17:19;26.40;92.90
21312;DHT22;18076;52.154;10.570;2022-07-23T11:22:38;25.80;93.10
21312;DHT22;18076;52.154;10.570;2022-07-23T11:25:04;26.00;93.70
21312;DHT22;18076;52.154;10.570;2022-07-23T11:27:44;26.30;93.20
21312;DHT22;18076;52.154;10.570;2022-07-23T11:30:12;26.20;93.30
21312;DHT22;18076;52.154;10.570;2022-07-23T11:35:37;26.00;92.80
21312;DHT22;18076;52.154;10.570;2022-07-23T11:38:06;26.20;92.90
21312;DHT22;18076;52.154;10.570;2022-07-23T11:40:33;26.10;92.00
21312;DHT22;18076;52.154;10.570;2022-07-23T11:43:00;26.10;92.40
21312;DHT22;18076;52.154;10.570;2022-07-23T11:45:42;26.30;92.50
21312;DHT22;18076;52.154;10.570;2022-07-23T11:48:15;26.60;92.10
21312;DHT22;18076;52.154;10.570;2022-07-23T11:50:41;26.40;91.70
21312;DHT22;18076;52.154;10.570;2022-07-23T11:53:06;26.50;91.90
21312;DHT22;18076;52.154;10.570;2022-07-23T11:55:32;26.20;91.20
21312;DHT22;18076;52.154;10.570;2022-07-23T11:57:57;26.00;91.20
21312;DHT22;18076;52.154;10.570;2022-07-23T12:00:24;26.30;91.70
21312;DHT22;18076;52.154;10.570;2022-07-23T12:02:50;26.10;91.30
21312;DHT22;18076;52.154;10.570;2022-07-23T12:05:17;25.90;91.40
21312;DHT22;18076;52.154;10.570;2022-07-23T12:07:44;26.00;91.80
21312;DHT22;18076;52.154;10.570;2022-07-23T12:10:17;26.10;91.60
21312;DHT22;18076;52.154;10.570;2022-07-23T12:12:44;26.20;91.80
21312;DHT22;18076;52.154;10.570;2022-07-23T12:15:12;26.50;91.70
21312;DHT22;18076;52.154;10.570;2022-07-23T12:17:38;26.80;91.40
21312;DHT22;18076;52.154;10.570;2022-07-23T12:20:05;26.80;90.60
21312;DHT22;18076;52.154;10.570;2022-07-23T12:22:38;26.70;90.90
21312;DHT22;18076;52.154;10.570;2022-07-23T12:25:09;26.70;91.20
21312;DHT22;18076;52.154;10.570;2022-07-23T12:27:35;26.60;90.60
21312;DHT22;18076;52.154;10.570;2022-07-23T12:32:46;26.60;90.20
21312;DHT22;18076;52.154;10.570;2022-07-23T12:35:12;26.50;90.30
21312;DHT22;18076;52.154;10.570;2022-07-23T12:37:38;26.60;90.30
21312;DHT22;18076;52.154;10.570;2022-07-23T12:40:24;26.40;90.40
21312;DHT22;18076;52.154;10.570;2022-07-23T12:42:54;26.60;91.20
21312;DHT22;18076;52.154;10.570;2022-07-23T12:45:20;26.90;90.10
21312;DHT22;18076;52.154;10.570;2022-07-23T12:47:55;26.70;88.80
21312;DHT22;18076;52.154;10.570;2022-07-23T12:50:34;26.60;90.20
21312;DHT22;18076;52.154;10.570;2022-07-23T12:53:04;26.30;88.90
21312;DHT22;18076;52.154;10.570;2022-07-23T12:55:30;26.20;90.30
21312;DHT22;18076;52.154;10.570;2022-07-23T12:58:02;26.30;90.60
21312;DHT22;18076;52.154;10.570;2022-07-23T13:00:28;26.60;90.30
21312;DHT22;18076;52.154;10.570;2022-07-23T13:02:54;26.60;89.70
21312;DHT22;18076;52.154;10.570;2022-07-23T13:05:19;26.90;90.30
21312;DHT22;18076;52.154;10.570;2022-07-23T13:07:45;27.20;88.30
21312;DHT22;18076;52.154;10.570;2022-07-23T13:10:10;27.20;88.50
21312;DHT22;18076;52.154;10.570;2022-07-23T13:12:37;27.30;87.50
21312;DHT22;18076;52.154;10.570;2022-07-23T13:15:03;27.30;88.20
21312;DHT22;18076;52.154;10.570;2022-07-23T13:17:28;27.40;87.00
21312;DHT22;18076;52.154;10.570;2022-07-23T13:19:54;27.30;87.10
21312;DHT22;18076;52.154;10.570;2022-07-23T13:22:19;27.50;88.70
21312;DHT22;18076;52.154;10.570;2022-07-23T13:24:45;27.40;86.20
21312;DHT22;18076;52.154;10.570;2022-07-23T13:27:10;27.50;87.20
21312;DHT22;18076;52.154;10.570;2022-07-23T13:29:36;27.50;86.20
21312;DHT22;18076;52.154;10.570;2022-07-23T13:32:01;27.60;86.80
21312;DHT22;18076;52.154;10.570;2022-07-23T13:34:27;27.80;86.00
21312;DHT22;18076;52.154;10.570;2022-07-23T13:36:52;27.90;86.10
21312;DHT22;18076;52.154;10.570;2022-07-23T13:39:18;28.10;85.70
21312;DHT22;18076;52.154;10.570;2022-07-23T13:41:43;28.20;84.70
21312;DHT22;18076;52.154;10.570;2022-07-23T13:44:09;28.10;84.50
21312;DHT22;18076;52.154;10.570;2022-07-23T13:46:34;27.90;84.00
21312;DHT22;18076;52.154;10.570;2022-07-23T13:49:00;27.90;84.20
21312;DHT22;18076;52.154;10.570;2022-07-23T13:51:26;27.60;83.70
21312;DHT22;18076;52.154;10.570;2022-07-23T13:53:51;27.60;84.00
21312;DHT22;18076;52.154;10.570;2022-07-23T13:56:17;27.50;83.40
21312;DHT22;18076;52.154;10.570;2022-07-23T13:58:43;27.30;84.00
21312;DHT22;18076;52.154;10.570;2022-07-23T14:01:08;27.30;83.80
21312;DHT22;18076;52.154;10.570;2022-07-23T14:03:34;27.10;84.10
21312;DHT22;18076;52.154;10.570;2022-07-23T14:06:00;26.90;84.30
21312;DHT22;18076;52.154;10.570;2022-07-23T14:08:25;26.80;83.30
21312;DHT22;18076;52.154;10.570;2022-07-23T14:10:51;26.60;84.40
21312;DHT22;18076;52.154;10.570;2022-07-23T14:13:16;26.70;85.10
21312;DHT22;18076;52.154;10.570;2022-07-23T14:15:42;26.70;84.60
21312;DHT22;18076;52.154;10.570;2022-07-23T14:18:08;26.70;84.30
21312;DHT22;18076;52.154;10.570;2022-07-23T14:20:33;26.90;84.40
21312;DHT22;18076;52.154;10.570;2022-07-23T14:22:59;27.00;83.50
21312;DHT22;18076;52.154;10.570;2022-07-23T14:25:26;26.90;83.30
21312;DHT22;18076;52.154;10.570;2022-07-23T14:27:51;26.40;82.90
21312;DHT22;18076;52.154;10.570;2022-07-23T14:30:17;26.20;83.70
21312;DHT22;18076;52.154;10.570;2022-07-23T14:32:42;25.60;84.40
21312;DHT22;18076;52.154;10.570;2022-07-23T14:35:08;25.60;85.90
21312;DHT22;18076;52.154;10.570;2022-07-23T14:37:33;25.60;85.90
21312;DHT22;18076;52.154;10.570;2022-07-23T14:39:59;25.80;84.60
21312;DHT22;18076;52.154;10.570;2022-07-23T14:42:25;25.80;85.80
21312;DHT22;18076;52.154;10.570;2022-07-23T14:44:50;26.20;84.90
21312;DHT22;18076;52.154;10.570;2022-07-23T14:47:16;26.30;85.50
21312;DHT22;18076;52.154;10.570;2022-07-23T14:49:42;26.90;84.80
21312;DHT22;18076;52.154;10.570;2022-07-23T14:52:07;27.10;84.00
21312;DHT22;18076;52.154;10.570;2022-07-23T14:54:33;27.30;82.50
21312;DHT22;18076;52.154;10.570;2022-07-23T14:57:00;27.20;83.10
21312;DHT22;18076;52.154;10.570;2022-07-23T14:59:26;27.10;82.20
21312;DHT22;18076;52.154;10.570;2022-07-23T15:01:52;26.70;81.80
21312;DHT22;18076;52.154;10.570;2022-07-23T15:04:17;26.10;83.50
21312;DHT22;18076;52.154;10.570;2022-07-23T15:06:43;26.10;84.30
21312;DHT22;18076;52.154;10.570;2022-07-23T15:09:10;26.10;83.60
21312;DHT22;18076;52.154;10.570;2022-07-23T15:11:35;26.00;84.30
21312;DHT22;18076;52.154;10.570;2022-07-23T15:14:03;26.00;84.50
21312;DHT22;18076;52.154;10.570;2022-07-23T15:16:28;26.10;84.50
21312;DHT22;18076;52.154;10.570;2022-07-23T15:18:54;26.30;84.30
21312;DHT22;18076;52.154;10.570;2022-07-23T15:21:20;26.10;83.80
21312;DHT22;18076;52.154;10.570;2022-07-23T15:23:45;26.10;83.80
21312;DHT22;18076;52.154;10.570;2022-07-23T15:26:11;26.00;83.60
21312;DHT22;18076;52.154;10.570;2022-07-23T15:28:38;26.00;83.00
21312;DHT22;18076;52.154;10.570;2022-07-23T15:31:04;26.00;83.10
21312;DHT22;18076;52.154;10.570;2022-07-23T15:33:29;26.10;83.10
21312;DHT22;18076;52.154;10.570;2022-07-23T15:35:55;26.20;82.80
21312;DHT22;18076;52.154;10.570;2022-07-23T15:38:21;26.00;82.60
21312;DHT22;18076;52.154;10.570;2022-07-23T15:40:47;25.80;83.50
21312;DHT22;18076;52.154;10.570;2022-07-23T15:43:13;25.80;83.50
21312;DHT22;18076;52.154;10.570;2022-07-23T15:45:39;25.80;83.10
21312;DHT22;18076;52.154;10.570;2022-07-23T15:48:04;25.90;83.10
21312;DHT22;18076;52.154;10.570;2022-07-23T15:50:30;25.70;82.70
21312;DHT22;18076;52.154;10.570;2022-07-23T15:52:55;25.60;82.90
21312;DHT22;18076;52.154;10.570;2022-07-23T15:55:21;25.60;83.60